sensor_id;sensor_type;location;lat;lon;timestamp;pressure;altitude;pressure_sealevel;temperature;humidity
43818;BME280;29868;47.360;18.984;2022-12-18T00:00:39;101730.09;;;-2.01;100.00
43818;BME280;29868;47.360;18.984;2022-12-18T00:03:04;101737.00;;;-2.00;100.00
43818;BME280;29868;47.360;18.984;2022-12-18T00:05:29;101740.81;;;-1.95;100.00
43818;BME280;29868;47.360;18.984;2022-12-18T15:49:07;102470.03;;;-2.87;100.00
43818;BME280;29868;47.360;18.984;2022-12-18T15:51:33;102476.03;;;-2.86;100.00
43818;BME280;29868;47.360;18.984;2022-12-18T15:54:00;102478.38;;;-2.88;100.00
43818;BME280;29868;47.360;18.984;2022-12-18T15:56:26;102489.41;;;-2.96;100.00
43818;BME280;29868;47.360;18.984;2022-12-18T15:59:14;102485.50;;;-3.01;100.00
43818;BME280;29868;47.360;18.984;2022-12-18T16:01:40;102487.91;;;-3.03;100.00
43818;BME280;29868;47.360;18.984;2022-12-18T16:04:06;102482.03;;;-3.10;100.00
43818;BME280;29868;47.360;18.984;2022-12-18T16:06:31;102500.47;;;-2.96;100.00
43818;BME280;29868;47.360;18.984;2022-12-18T16:08:56;102494.59;;;-3.03;100.00
43818;BME280;29868;47.360;18.984;2022-12-18T16:14:03;102497.84;;;-3.13;100.00
43818;BME280;29868;47.360;18.984;2022-12-18T16:16:28;102501.25;;;-3.21;100.00
43818;BME280;29868;47.360;18.984;2022-12-18T16:18:53;102504.91;;;-3.26;100.00
43818;BME280;29868;47.360;18.984;2022-12-18T16:21:18;102504.78;;;-3.28;100.00
43818;BME280;29868;47.360;18.984;2022-12-18T16:23:44;102507.88;;;-3.30;100.00
43818;BME280;29868;47.360;18.984;2022-12-18T16:26:09;102516.09;;;-3.33;100.00
43818;BME280;29868;47.360;18.984;2022-12-18T16:28:34;102518.72;;;-3.40;100.00
43818;BME280;29868;47.360;18.984;2022-12-18T16:30:59;102518.41;;;-3.43;100.00
43818;BME280;29868;47.360;18.984;2022-12-18T16:33:25;102530.03;;;-3.45;100.00
43818;BME280;29868;47.360;18.984;2022-12-18T16:35:53;102523.16;;;-3.46;100.00
43818;BME280;29868;47.360;18.984;2022-12-18T16:38:18;102520.47;;;-3.48;100.00
43818;BME280;29868;47.360;18.984;2022-12-18T16:40:43;102521.91;;;-3.50;100.00
43818;BME280;29868;47.360;18.984;2022-12-18T16:43:28;102529.41;;;-3.51;100.00
43818;BME280;29868;47.360;18.984;2022-12-18T16:45:53;102524.81;;;-3.62;100.00
43818;BME280;29868;47.360;18.984;2022-12-18T16:48:22;102526.88;;;-3.67;100.00
43818;BME280;29868;47.360;18.984;2022-12-18T16:50:47;102540.34;;;-3.75;100.00
43818;BME280;29868;47.360;18.984;2022-12-18T16:53:12;102536.09;;;-3.68;100.00
43818;BME280;29868;47.360;18.984;2022-12-18T16:55:37;102546.50;;;-3.73;100.00
43818;BME280;29868;47.360;18.984;2022-12-18T16:58:03;102547.56;;;-3.87;100.00
43818;BME280;29868;47.360;18.984;2022-12-18T17:00:28;102529.38;;;-3.83;100.00
43818;BME280;29868;47.360;18.984;2022-12-18T17:02:53;102538.81;;;-3.82;100.00
43818;BME280;29868;47.360;18.984;2022-12-18T17:05:18;102541.50;;;-3.80;100.00
43818;BME280;29868;47.360;18.984;2022-12-18T17:07:43;102545.28;;;-3.77;100.00
43818;BME280;29868;47.360;18.984;2022-12-18T17:10:09;102533.41;;;-3.85;100.00
43818;BME280;29868;47.360;18.984;2022-12-18T17:12:34;102524.22;;;-3.92;100.00
43818;BME280;29868;47.360;18.984;2022-12-18T17:15:01;102523.66;;;-3.89;100.00
43818;BME280;29868;47.360;18.984;2022-12-18T17:17:26;102523.47;;;-3.91;100.00
43818;BME280;29868;47.360;18.984;2022-12-18T17:19:51;102520.44;;;-3.95;100.00
43818;BME280;29868;47.360;18.984;2022-12-18T17:22:17;102515.38;;;-3.95;100.00
43818;BME280;29868;47.360;18.984;2022-12-18T17:24:42;102517.16;;;-3.94;100.00
43818;BME280;29868;47.360;18.984;2022-12-18T17:27:07;102515.78;;;-3.99;100.00
43818;BME280;29868;47.360;18.984;2022-12-18T17:29:32;102515.28;;;-4.04;100.00
43818;BME280;29868;47.360;18.984;2022-12-18T17:31:58;102518.72;;;-4.03;100.00
43818;BME280;29868;47.360;18.984;2022-12-18T17:34:23;102525.59;;;-4.02;100.00
43818;BME280;29868;47.360;18.984;2022-12-18T17:36:48;102525.84;;;-4.08;100.00
43818;BME280;29868;47.360;18.984;2022-12-18T17:39:17;102523.72;;;-4.12;100.00
43818;BME280;29868;47.360;18.984;2022-12-18T17:41:43;102528.78;;;-4.12;100.00
43818;BME280;29868;47.360;18.984;2022-12-18T17:44:08;102536.81;;;-4.16;100.00
43818;BME280;29868;47.360;18.984;2022-12-18T17:46:33;102543.56;;;-4.24;100.00
43818;BME280;29868;47.360;18.984;2022-12-18T17:48:59;102547.41;;;-4.27;100.00
43818;BME280;29868;47.360;18.984;2022-12-18T17:51:25;102546.16;;;-4.31;100.00
43818;BME280;29868;47.360;18.984;2022-12-18T17:53:51;102538.91;;;-4.28;100.00
43818;BME280;29868;47.360;18.984;2022-12-18T17:56:17;102540.34;;;-4.30;100.00
43818;BME280;29868;47.360;18.984;2022-12-18T17:58:43;102537.97;;;-4.28;100.00
43818;BME280;29868;47.360;18.984;2022-12-18T18:01:09;102532.75;;;-4.30;100.00
43818;BME280;29868;47.360;18.984;2022-12-18T18:03:36;102527.81;;;-4.28;100.00
43818;BME280;29868;47.360;18.984;2022-12-18T18:06:02;102529.47;;;-4.29;100.00
43818;BME280;29868;47.360;18.984;2022-12-18T18:08:27;102522.44;;;-4.31;100.00
43818;BME280;29868;47.360;18.984;2022-12-18T18:10:53;102530.22;;;-4.30;100.00
43818;BME280;29868;47.360;18.984;2022-12-18T18:13:22;102533.63;;;-4.29;100.00
43818;BME280;29868;47.360;18.984;2022-12-18T18:16:07;102537.81;;;-4.30;100.00
43818;BME280;29868;47.360;18.984;2022-12-18T18:18:32;102536.72;;;-4.32;100.00
43818;BME280;29868;47.360;18.984;2022-12-18T18:20:57;102532.25;;;-4.34;100.00
43818;BME280;29868;47.360;18.984;2022-12-18T18:23:23;102523.34;;;-4.31;100.00
43818;BME280;29868;47.360;18.984;2022-12-18T18:25:48;102534.88;;;-4.26;100.00
43818;BME280;29868;47.360;18.984;2022-12-18T18:28:13;102537.50;;;-4.17;100.00
43818;BME280;29868;47.360;18.984;2022-12-18T18:30:38;102540.63;;;-4.20;100.00
43818;BME280;29868;47.360;18.984;2022-12-18T18:33:04;102531.94;;;-4.22;100.00
43818;BME280;29868;47.360;18.984;2022-12-18T18:35:29;102535.22;;;-4.23;100.00
43818;BME280;29868;47.360;18.984;2022-12-18T18:37:54;102546.13;;;-4.24;100.00
43818;BME280;29868;47.360;18.984;2022-12-18T18:40:20;102552.50;;;-4.27;100.00
43818;BME280;29868;47.360;18.984;2022-12-18T18:42:45;102558.84;;;-4.31;100.00
43818;BME280;29868;47.360;18.984;2022-12-18T18:45:11;102563.25;;;-4.37;100.00
43818;BME280;29868;47.360;18.984;2022-12-18T18:47:36;102566.56;;;-4.45;100.00
43818;BME280;29868;47.360;18.984;2022-12-18T18:50:01;102571.16;;;-4.50;100.00
43818;BME280;29868;47.360;18.984;2022-12-18T18:52:26;102567.38;;;-4.53;100.00
43818;BME280;29868;47.360;18.984;2022-12-18T18:54:52;102566.66;;;-4.59;100.00
43818;BME280;29868;47.360;18.984;2022-12-18T18:57:17;102571.00;;;-4.58;100.00
43818;BME280;29868;47.360;18.984;2022-12-18T18:59:42;102571.09;;;-4.66;100.00
43818;BME280;29868;47.360;18.984;2022-12-18T19:02:09;102573.31;;;-4.76;100.00
43818;BME280;29868;47.360;18.984;2022-12-18T19:04:35;102567.88;;;-4.79;100.00
43818;BME280;29868;47.360;18.984;2022-12-18T19:07:00;102569.59;;;-4.63;100.00
43818;BME280;29868;47.360;18.984;2022-12-18T19:09:26;102566.50;;;-4.61;100.00
43818;BME280;29868;47.360;18.984;2022-12-18T19:11:51;102564.22;;;-4.74;100.00
43818;BME280;29868;47.360;18.984;2022-12-18T19:14:35;102576.25;;;-4.80;100.00
43818;BME280;29868;47.360;18.984;2022-12-18T19:17:00;102583.34;;;-4.84;100.00
43818;BME280;29868;47.360;18.984;2022-12-18T19:19:26;102584.63;;;-4.88;100.00
43818;BME280;29868;47.360;18.984;2022-12-18T19:21:51;102584.81;;;-4.94;100.00
43818;BME280;29868;47.360;18.984;2022-12-18T19:24:16;102588.47;;;-4.99;100.00
43818;BME280;29868;47.360;18.984;2022-12-18T19:26:42;102593.69;;;-4.97;100.00
43818;BME280;29868;47.360;18.984;2022-12-18T19:29:07;102593.53;;;-4.99;100.00
43818;BME280;29868;47.360;18.984;2022-12-18T19:31:33;102590.38;;;-4.89;100.00
43818;BME280;29868;47.360;18.984;2022-12-18T19:33:58;102594.44;;;-4.98;100.00
43818;BME280;29868;47.360;18.984;2022-12-18T19:36:25;102601.28;;;-4.90;100.00
43818;BME280;29868;47.360;18.984;2022-12-18T19:38:51;102610.34;;;-4.92;100.00
43818;BME280;29868;47.360;18.984;2022-12-18T19:41:17;102606.72;;;-4.94;100.00
43818;BME280;29868;47.360;18.984;2022-12-18T19:43:43;102601.47;;;-4.88;100.00
43818;BME280;29868;47.360;18.984;2022-12-18T19:46:09;102611.44;;;-4.97;100.00
43818;BME280;29868;47.360;18.984;2022-12-18T19:48:35;102613.81;;;-4.99;100.00
43818;BME280;29868;47.360;18.984;2022-12-18T19:51:04;102613.44;;;-4.95;100.00
43818;BME280;29868;47.360;18.984;2022-12-18T19:53:30;102613.44;;;-4.95;100.00
43818;BME280;29868;47.360;18.984;2022-12-18T19:55:56;102614.31;;;-4.94;100.00
43818;BME280;29868;47.360;18.984;2022-12-18T19:58:21;102619.78;;;-4.98;100.00
43818;BME280;29868;47.360;18.984;2022-12-18T20:00:46;102628.47;;;-4.96;100.00
43818;BME280;29868;47.360;18.984;2022-12-18T20:03:11;102627.34;;;-4.91;100.00
43818;BME280;29868;47.360;18.984;2022-12-18T20:05:36;102623.03;;;-4.92;100.00
43818;BME280;29868;47.360;18.984;2022-12-18T20:08:03;102620.63;;;-4.83;100.00
43818;BME280;29868;47.360;18.984;2022-12-18T20:10:28;102616.59;;;-4.81;100.00
43818;BME280;29868;47.360;18.984;2022-12-18T20:12:53;102619.97;;;-4.67;100.00
43818;BME280;29868;47.360;18.984;2022-12-18T20:15:18;102627.53;;;-4.59;100.00
43818;BME280;29868;47.360;18.984;2022-12-18T20:17:43;102627.81;;;-4.42;100.00
43818;BME280;29868;47.360;18.984;2022-12-18T20:20:09;102619.84;;;-4.45;100.00
43818;BME280;29868;47.360;18.984;2022-12-18T20:22:34;102627.09;;;-4.48;100.00
43818;BME280;29868;47.360;18.984;2022-12-18T20:25:00;102629.53;;;-4.57;100.00
43818;BME280;29868;47.360;18.984;2022-12-18T20:27:25;102634.78;;;-4.62;100.00
43818;BME280;29868;47.360;18.984;2022-12-18T20:29:50;102645.75;;;-4.78;100.00
43818;BME280;29868;47.360;18.984;2022-12-18T20:32:15;102655.91;;;-4.85;100.00
43818;BME280;29868;47.360;18.984;2022-12-18T20:34:41;102650.84;;;-4.85;100.00
43818;BME280;29868;47.360;18.984;2022-12-18T20:37:06;102651.97;;;-4.90;100.00
43818;BME280;29868;47.360;18.984;2022-12-18T20:39:31;102642.03;;;-4.88;100.00
43818;BME280;29868;47.360;18.984;2022-12-18T20:41:56;102642.94;;;-4.95;100.00
43818;BME280;29868;47.360;18.984;2022-12-18T20:44:22;102646.53;;;-4.93;100.00
43818;BME280;29868;47.360;18.984;2022-12-18T20:46:48;102648.41;;;-4.99;100.00
43818;BME280;29868;47.360;18.984;2022-12-18T20:49:13;102659.63;;;-5.04;100.00
43818;BME280;29868;47.360;18.984;2022-12-18T20:51:38;102655.50;;;-5.11;100.00
43818;BME280;29868;47.360;18.984;2022-12-18T20:54:03;102651.34;;;-5.10;100.00
43818;BME280;29868;47.360;18.984;2022-12-18T20:56:29;102644.81;;;-5.16;100.00
43818;BME280;29868;47.360;18.984;2022-12-18T20:58:58;102651.72;;;-5.15;100.00
43818;BME280;29868;47.360;18.984;2022-12-18T21:01:24;102662.59;;;-5.23;100.00
43818;BME280;29868;47.360;18.984;2022-12-18T21:03:50;102656.59;;;-5.23;100.00
43818;BME280;29868;47.360;18.984;2022-12-18T21:06:16;102660.03;;;-5.16;100.00
43818;BME280;29868;47.360;18.984;2022-12-18T21:08:42;102657.31;;;-5.17;100.00
43818;BME280;29868;47.360;18.984;2022-12-18T21:11:11;102662.75;;;-5.14;100.00
43818;BME280;29868;47.360;18.984;2022-12-18T21:13:56;102661.13;;;-5.14;100.00
43818;BME280;29868;47.360;18.984;2022-12-18T21:16:21;102662.19;;;-5.11;100.00
43818;BME280;29868;47.360;18.984;2022-12-18T21:18:47;102664.69;;;-5.04;100.00
43818;BME280;29868;47.360;18.984;2022-12-18T21:21:12;102661.44;;;-5.03;100.00
43818;BME280;29868;47.360;18.984;2022-12-18T21:23:37;102661.78;;;-5.00;100.00
43818;BME280;29868;47.360;18.984;2022-12-18T21:26:13;102664.50;;;-4.99;100.00
43818;BME280;29868;47.360;18.984;2022-12-18T21:28:39;102664.38;;;-5.07;100.00
43818;BME280;29868;47.360;18.984;2022-12-18T21:31:04;102656.75;;;-5.07;100.00
43818;BME280;29868;47.360;18.984;2022-12-18T21:33:29;102665.03;;;-5.01;100.00
43818;BME280;29868;47.360;18.984;2022-12-18T21:35:54;102652.50;;;-4.93;100.00
43818;BME280;29868;47.360;18.984;2022-12-18T21:38:20;102657.56;;;-4.85;100.00
43818;BME280;29868;47.360;18.984;2022-12-18T21:40:45;102657.91;;;-4.82;100.00
43818;BME280;29868;47.360;18.984;2022-12-18T21:43:11;102663.34;;;-4.79;100.00
43818;BME280;29868;47.360;18.984;2022-12-18T21:45:55;102656.25;;;-4.75;100.00
43818;BME280;29868;47.360;18.984;2022-12-18T21:48:20;102638.16;;;-4.85;100.00
43818;BME280;29868;47.360;18.984;2022-12-18T21:50:45;102644.34;;;-4.83;100.00
43818;BME280;29868;47.360;18.984;2022-12-18T21:53:10;102644.34;;;-4.83;100.00
43818;BME280;29868;47.360;18.984;2022-12-18T21:55:35;102648.13;;;-4.79;100.00
43818;BME280;29868;47.360;18.984;2022-12-18T21:58:01;102649.75;;;-4.80;100.00
43818;BME280;29868;47.360;18.984;2022-12-18T22:00:26;102652.28;;;-4.80;100.00
43818;BME280;29868;47.360;18.984;2022-12-18T22:02:51;102646.63;;;-4.77;100.00
43818;BME280;29868;47.360;18.984;2022-12-18T22:05:17;102644.31;;;-4.76;100.00
43818;BME280;29868;47.360;18.984;2022-12-18T22:07:42;102644.66;;;-4.73;100.00
43818;BME280;29868;47.360;18.984;2022-12-18T22:10:08;102646.09;;;-4.75;100.00
43818;BME280;29868;47.360;18.984;2022-12-18T22:12:33;102645.34;;;-4.74;100.00
43818;BME280;29868;47.360;18.984;2022-12-18T22:15:04;102641.56;;;-4.77;100.00
43818;BME280;29868;47.360;18.984;2022-12-18T22:17:30;102640.91;;;-4.83;100.00
43818;BME280;29868;47.360;18.984;2022-12-18T22:19:55;102640.03;;;-4.91;100.00
43818;BME280;29868;47.360;18.984;2022-12-18T22:22:20;102643.63;;;-4.89;100.00
43818;BME280;29868;47.360;18.984;2022-12-18T22:24:47;102643.97;;;-4.86;100.00
43818;BME280;29868;47.360;18.984;2022-12-18T22:27:12;102646.16;;;-4.89;100.00
43818;BME280;29868;47.360;18.984;2022-12-18T22:29:37;102645.44;;;-4.81;100.00
43818;BME280;29868;47.360;18.984;2022-12-18T22:32:21;102652.22;;;-4.66;100.00
43818;BME280;29868;47.360;18.984;2022-12-18T22:34:46;102654.97;;;-4.41;100.00
43818;BME280;29868;47.360;18.984;2022-12-18T22:37:12;102644.63;;;-4.35;100.00
43818;BME280;29868;47.360;18.984;2022-12-18T22:39:37;102651.72;;;-4.17;100.00
43818;BME280;29868;47.360;18.984;2022-12-18T22:42:02;102648.13;;;-4.19;100.00
43818;BME280;29868;47.360;18.984;2022-12-18T22:44:27;102658.47;;;-4.25;100.00
43818;BME280;29868;47.360;18.984;2022-12-18T22:46:53;102651.22;;;-4.22;100.00
43818;BME280;29868;47.360;18.984;2022-12-18T22:49:20;102654.59;;;-4.14;100.00
43818;BME280;29868;47.360;18.984;2022-12-18T22:51:45;102652.63;;;-4.17;100.00
43818;BME280;29868;47.360;18.984;2022-12-18T22:54:11;102649.81;;;-4.27;100.00
43818;BME280;29868;47.360;18.984;2022-12-18T22:56:36;102658.00;;;-4.36;100.00
43818;BME280;29868;47.360;18.984;2022-12-18T22:59:02;102669.72;;;-4.53;100.00
43818;BME280;29868;47.360;18.984;2022-12-18T23:01:28;102665.97;;;-4.63;100.00
43818;BME280;29868;47.360;18.984;2022-12-18T23:03:53;102667.84;;;-4.77;100.00
43818;BME280;29868;47.360;18.984;2022-12-18T23:06:19;102664.06;;;-4.80;100.00
43818;BME280;29868;47.360;18.984;2022-12-18T23:08:45;102671.84;;;-4.79;100.00
43818;BME280;29868;47.360;18.984;2022-12-18T23:11:11;102673.25;;;-4.74;100.00
43818;BME280;29868;47.360;18.984;2022-12-18T23:13:36;102677.22;;;-4.69;100.00
43818;BME280;29868;47.360;18.984;2022-12-18T23:16:05;102670.00;;;-4.73;100.00
43818;BME280;29868;47.360;18.984;2022-12-18T23:18:31;102670.41;;;-4.84;100.00
43818;BME280;29868;47.360;18.984;2022-12-18T23:20:56;102669.78;;;-4.67;100.00
43818;BME280;29868;47.360;18.984;2022-12-18T23:23:21;102665.97;;;-4.63;100.00
43818;BME280;29868;47.360;18.984;2022-12-18T23:25:47;102671.72;;;-4.50;100.00
43818;BME280;29868;47.360;18.984;2022-12-18T23:28:12;102676.28;;;-4.32;100.00
43818;BME280;29868;47.360;18.984;2022-12-18T23:30:37;102671.56;;;-4.29;100.00
43818;BME280;29868;47.360;18.984;2022-12-18T23:33:02;102672.78;;;-4.25;100.00
43818;BME280;29868;47.360;18.984;2022-12-18T23:35:28;102660.31;;;-4.24;100.00
43818;BME280;29868;47.360;18.984;2022-12-18T23:37:53;102661.25;;;-4.07;100.00
43818;BME280;29868;47.360;18.984;2022-12-18T23:40:18;102665.94;;;-4.03;100.00
43818;BME280;29868;47.360;18.984;2022-12-18T23:42:43;102662.22;;;-4.14;100.00
43818;BME280;29868;47.360;18.984;2022-12-18T23:45:09;102661.75;;;-4.03;100.00
43818;BME280;29868;47.360;18.984;2022-12-18T23:47:34;102664.19;;;-4.11;100.00
43818;BME280;29868;47.360;18.984;2022-12-18T23:49:59;102669.31;;;-4.19;100.00
43818;BME280;29868;47.360;18.984;2022-12-18T23:52:25;102671.34;;;-4.23;100.00
43818;BME280;29868;47.360;18.984;2022-12-18T23:54:50;102676.66;;;-4.36;100.00
43818;BME280;29868;47.360;18.984;2022-12-18T23:57:15;102680.25;;;-4.27;100.00
43818;BME280;29868;47.360;18.984;2022-12-18T23:59:41;102668.38;;;-4.12;100.00
